Time;durP1;ratioP1;P1;durP2;ratioP2;P2;SDS_P1;SDS_P2;PMS_P1;PMS_P2;Temp;Humidity;BMP_temperature;BMP_pressure;BME280_temperature;BME280_humidity;BME280_pressure;Samples;Min_cycle;Max_cycle;Signal;HPM_P1;HPM_P2
2022/03/22 00:01:10;;;;;;;17.40;7.60;;;5.30;74.40;;;;;;5063010;28;20215;-80
2022/03/22 00:03:36;;;;;;;16.60;8.67;;;5.20;74.30;;;;;;5047394;28;20197;-76
2022/03/22 00:06:03;;;;;;;16.13;7.30;;;5.20;74.10;;;;;;5032128;28;20423;-77
2022/03/22 00:08:29;;;;;;;18.33;8.20;;;5.20;73.90;;;;;;5034089;28;20171;-77
2022/03/22 00:10:55;;;;;;;15.03;8.20;;;5.20;74.20;;;;;;5038911;28;20822;-77
2022/03/22 00:13:20;;;;;;;18.90;9.00;;;5.10;74.50;;;;;;5052031;28;20537;-77
2022/03/22 00:15:46;;;;;;;16.70;8.50;;;5.00;74.50;;;;;;5052291;28;20461;-77
2022/03/22 00:18:12;;;;;;;15.40;8.93;;;5.00;74.60;;;;;;5052210;28;20172;-77
2022/03/22 00:20:37;;;;;;;18.27;8.00;;;4.90;74.90;;;;;;5052195;28;20429;-77
2022/03/22 00:23:03;;;;;;;15.30;7.97;;;4.90;75.00;;;;;;5052095;28;20215;-77
2022/03/22 00:25:29;;;;;;;21.40;8.27;;;4.80;74.80;;;;;;5053404;28;20225;-77
2022/03/22 00:27:56;;;;;;;17.40;8.70;;;4.70;75.20;;;;;;5053168;28;20818;-77
2022/03/22 00:30:24;;;;;;;18.53;8.37;;;4.70;75.20;;;;;;5051943;28;20180;-76
2022/03/22 00:32:53;;;;;;;15.63;7.23;;;4.60;75.20;;;;;;5051798;28;20497;-76
2022/03/22 00:35:23;;;;;;;16.13;7.60;;;4.60;75.30;;;;;;5052983;28;20422;-76
2022/03/22 00:37:50;;;;;;;15.70;6.97;;;4.60;75.30;;;;;;5052275;28;20414;-76
2022/03/22 00:40:19;;;;;;;14.40;7.57;;;4.60;75.30;;;;;;5051980;28;20951;-77
2022/03/22 00:42:46;;;;;;;14.90;7.90;;;4.60;75.60;;;;;;5051118;28;20504;-76
2022/03/22 00:45:16;;;;;;;14.67;7.90;;;4.50;75.90;;;;;;5052428;28;20417;-75
2022/03/22 00:47:46;;;;;;;20.50;8.00;;;4.50;76.60;;;;;;5051417;28;20410;-75
2022/03/22 00:50:27;;;;;;;14.43;7.40;;;4.40;77.20;;;;;;5050976;28;20456;-76
2022/03/22 00:52:54;;;;;;;16.23;7.50;;;4.30;77.40;;;;;;5052310;28;20437;-77
2022/03/22 00:55:23;;;;;;;17.57;8.30;;;4.10;77.70;;;;;;5051882;28;20447;-76
2022/03/22 00:57:51;;;;;;;23.23;9.20;;;4.00;78.10;;;;;;5051806;28;20422;-76
2022/03/22 01:00:18;;;;;;;18.30;7.63;;;3.90;78.60;;;;;;5051530;28;20837;-76
2022/03/22 01:02:49;;;;;;;22.20;7.93;;;3.80;79.00;;;;;;5040994;28;20458;-76
2022/03/22 01:05:17;;;;;;;13.53;7.73;;;3.70;79.40;;;;;;5031549;28;20404;-76
2022/03/22 01:07:45;;;;;;;18.60;7.83;;;3.60;79.90;;;;;;5031924;28;20825;-76
2022/03/22 01:10:12;;;;;;;12.43;7.70;;;3.50;80.40;;;;;;5031089;28;20525;-76
2022/03/22 01:12:40;;;;;;;14.23;7.37;;;3.40;81.30;;;;;;5030483;28;20423;-76
2022/03/22 01:15:10;;;;;;;25.83;9.80;;;3.30;82.00;;;;;;5031149;28;20508;-78
2022/03/22 01:17:36;;;;;;;19.30;8.43;;;3.20;82.50;;;;;;5031528;28;20427;-77
2022/03/22 01:20:09;;;;;;;19.67;9.03;;;3.10;82.50;;;;;;5030180;28;20437;-75
2022/03/22 01:22:38;;;;;;;28.57;8.43;;;3.00;82.70;;;;;;5030379;28;20455;-75
2022/03/22 01:25:15;;;;;;;16.87;8.50;;;3.00;82.80;;;;;;5029914;28;20412;-76
2022/03/22 01:27:43;;;;;;;19.27;8.97;;;2.90;82.90;;;;;;5030326;28;21047;-76
2022/03/22 01:30:12;;;;;;;17.03;7.40;;;2.80;83.00;;;;;;5029898;28;20419;-76
2022/03/22 01:32:38;;;;;;;26.53;9.27;;;2.70;83.20;;;;;;5031052;28;20905;-76
2022/03/22 01:35:05;;;;;;;15.20;7.83;;;2.70;83.30;;;;;;5029703;28;20414;-76
2022/03/22 01:37:31;;;;;;;26.47;9.63;;;2.70;83.70;;;;;;5029868;28;20505;-76
2022/03/22 01:39:57;;;;;;;18.70;9.73;;;2.60;84.00;;;;;;5030059;28;20476;-76
2022/03/22 01:42:22;;;;;;;27.60;9.70;;;2.50;84.70;;;;;;5029612;28;21037;-77
2022/03/22 01:44:49;;;;;;;26.07;10.07;;;2.40;85.10;;;;;;5031034;28;20188;-76
2022/03/22 01:47:18;;;;;;;26.80;9.97;;;2.40;85.40;;;;;;5030960;28;20419;-76
2022/03/22 01:49:44;;;;;;;20.23;9.37;;;2.30;86.10;;;;;;5029721;28;20505;-76
2022/03/22 01:52:15;;;;;;;18.90;8.83;;;2.30;86.30;;;;;;5029637;28;20482;-76
2022/03/22 01:54:41;;;;;;;37.90;13.80;;;2.20;86.60;;;;;;5029722;28;20235;-75
2022/03/22 01:57:07;;;;;;;28.33;13.00;;;2.20;87.00;;;;;;5029360;28;20526;-76
2022/03/22 01:59:34;;;;;;;34.00;14.93;;;2.10;86.80;;;;;;5029415;28;20845;-75
2022/03/22 02:07:35;;;;;;;38.93;14.10;;;1.90;88.10;;;;;;5051247;28;20401;-77
2022/03/22 02:10:01;;;;;;;71.60;27.63;;;1.80;87.70;;;;;;5049494;28;20917;-77
2022/03/22 02:12:26;;;;;;;59.17;22.60;;;1.80;87.60;;;;;;5049368;28;20506;-76
2022/03/22 02:14:52;;;;;;;33.50;15.73;;;1.70;88.10;;;;;;5050619;28;20195;-76
2022/03/22 02:17:18;;;;;;;38.07;13.80;;;1.60;88.30;;;;;;5049119;28;20175;-76
2022/03/22 02:19:44;;;;;;;31.27;12.20;;;1.50;88.30;;;;;;5049465;28;20172;-76
2022/03/22 02:22:14;;;;;;;45.23;16.47;;;1.50;88.60;;;;;;5050221;28;20206;-76
2022/03/22 02:24:40;;;;;;;28.53;12.63;;;1.40;89.20;;;;;;5053321;28;20798;-76
2022/03/22 02:27:07;;;;;;;114.43;39.03;;;1.30;89.30;;;;;;5056801;28;20414;-75
2022/03/22 02:29:34;;;;;;;62.90;22.30;;;1.30;89.10;;;;;;5055848;28;20172;-75
2022/03/22 02:32:00;;;;;;;24.13;10.70;;;1.20;89.20;;;;;;5055820;28;20994;-76
2022/03/22 02:34:26;;;;;;;27.13;11.73;;;1.10;89.20;;;;;;5055808;28;20438;-76
2022/03/22 02:36:51;;;;;;;22.93;9.77;;;1.10;89.40;;;;;;5056918;28;20417;-75
2022/03/22 02:39:17;;;;;;;16.67;8.90;;;1.10;89.60;;;;;;5057260;28;20623;-76
2022/03/22 02:41:43;;;;;;;19.23;8.30;;;1.00;90.10;;;;;;5055619;28;20203;-76
2022/03/22 02:44:10;;;;;;;23.73;10.40;;;1.00;90.40;;;;;;5055803;28;20192;-76
2022/03/22 02:46:36;;;;;;;19.53;8.90;;;1.00;90.60;;;;;;5055907;28;20778;-76
2022/03/22 02:49:02;;;;;;;16.60;8.10;;;1.00;90.70;;;;;;5055758;28;20513;-76
2022/03/22 02:51:28;;;;;;;16.30;8.53;;;0.90;90.80;;;;;;5055698;28;20535;-75
2022/03/22 02:53:53;;;;;;;18.60;7.87;;;0.90;90.90;;;;;;5056951;28;20231;-76
2022/03/22 02:56:19;;;;;;;20.03;9.07;;;0.90;91.00;;;;;;5055500;28;20239;-75
2022/03/22 02:58:45;;;;;;;18.60;8.17;;;0.90;91.00;;;;;;5055901;28;20266;-75
2022/03/22 03:01:11;;;;;;;14.90;7.40;;;0.90;90.80;;;;;;5055202;28;20422;-74
2022/03/22 03:03:37;;;;;;;28.60;10.77;;;0.90;90.80;;;;;;5035862;28;20516;-75
2022/03/22 03:06:02;;;;;;;25.07;9.97;;;0.90;91.10;;;;;;5035379;28;20187;-76
2022/03/22 03:08:28;;;;;;;19.57;8.10;;;0.80;91.30;;;;;;5035937;28;20238;-75
2022/03/22 03:10:55;;;;;;;19.90;8.47;;;0.80;91.10;;;;;;5035238;28;20180;-76
2022/03/22 03:13:20;;;;;;;18.40;8.67;;;0.80;91.50;;;;;;5035287;28;20435;-75
2022/03/22 03:15:47;;;;;;;15.63;7.40;;;0.80;91.50;;;;;;5036351;28;20512;-75
2022/03/22 03:18:13;;;;;;;19.90;8.47;;;0.80;91.60;;;;;;5035599;28;20601;-75
2022/03/22 03:20:39;;;;;;;18.60;8.17;;;0.80;91.70;;;;;;5037854;28;20514;-76
2022/03/22 03:23:05;;;;;;;20.20;8.90;;;0.70;91.70;;;;;;5035814;28;20207;-76
2022/03/22 03:25:30;;;;;;;23.10;9.47;;;0.70;91.60;;;;;;5036316;28;20419;-76
2022/03/22 03:27:56;;;;;;;24.10;10.53;;;0.70;91.80;;;;;;5036164;28;20696;-76
2022/03/22 03:30:22;;;;;;;26.57;10.50;;;0.70;91.70;;;;;;5036078;28;20222;-75
2022/03/22 03:32:48;;;;;;;28.63;10.70;;;0.60;91.90;;;;;;5037339;28;20453;-76
2022/03/22 03:35:13;;;;;;;34.50;14.43;;;0.60;91.70;;;;;;5035067;28;20196;-76
2022/03/22 03:37:43;;;;;;;29.23;13.27;;;0.60;91.60;;;;;;5034221;28;20250;-76
2022/03/22 03:40:09;;;;;;;34.17;13.07;;;0.60;91.40;;;;;;5033256;28;20187;-76
2022/03/22 03:42:42;;;;;;;29.63;12.27;;;0.60;91.80;;;;;;5034157;28;20541;-75
2022/03/22 03:47:55;;;;;;;18.40;8.57;;;0.50;91.70;;;;;;5034681;28;20407;-76
2022/03/22 03:50:21;;;;;;;27.60;11.10;;;0.50;92.30;;;;;;5034116;28;20537;-75
2022/03/22 03:52:47;;;;;;;26.60;10.57;;;0.50;92.60;;;;;;5032862;28;20989;-77
2022/03/22 03:55:13;;;;;;;29.30;10.30;;;0.40;92.60;;;;;;5033088;28;20524;-77
2022/03/22 03:57:38;;;;;;;29.37;11.37;;;0.40;92.60;;;;;;5034473;28;20183;-77
2022/03/22 04:00:07;;;;;;;30.00;10.07;;;0.30;92.60;;;;;;5034295;28;20183;-78
2022/03/22 04:02:32;;;;;;;18.20;8.50;;;0.30;92.80;;;;;;5035377;28;20239;-78
2022/03/22 04:04:58;;;;;;;16.07;8.50;;;0.20;93.00;;;;;;5034187;28;20422;-78
2022/03/22 04:07:25;;;;;;;15.90;8.50;;;0.20;93.30;;;;;;5034211;28;20263;-77
2022/03/22 04:09:51;;;;;;;15.27;7.73;;;0.20;93.30;;;;;;5034389;28;20238;-78
2022/03/22 04:12:19;;;;;;;19.03;9.60;;;0.20;93.60;;;;;;5033896;28;20498;-78
2022/03/22 04:14:44;;;;;;;25.03;9.50;;;0.10;93.70;;;;;;5034146;28;20446;-78
2022/03/22 04:17:10;;;;;;;18.53;8.90;;;0.10;94.00;;;;;;5034018;28;20419;-78
2022/03/22 04:19:36;;;;;;;16.60;8.53;;;0.10;94.10;;;;;;5034245;28;20176;-78
2022/03/22 04:22:06;;;;;;;22.23;9.73;;;0.10;94.00;;;;;;5034002;28;20204;-77
2022/03/22 04:24:32;;;;;;;18.60;7.67;;;0.10;94.10;;;;;;5033724;28;20813;-77
2022/03/22 04:32:41;;;;;;;18.13;8.60;;;0.10;94.20;;;;;;5034348;28;20503;-78
2022/03/22 04:32:42;;;;;;;19.63;7.80;;;0.00;94.40;;;;;;5036325;28;20501;-77
2022/03/22 04:35:10;;;;;;;25.03;10.83;;;0.00;95.00;;;;;;5035106;28;20453;-78
2022/03/22 04:37:36;;;;;;;22.23;8.87;;;0.00;95.30;;;;;;5033259;28;20460;-77
2022/03/22 04:40:02;;;;;;;19.23;9.10;;;-0.10;95.30;;;;;;5034020;28;20425;-76
2022/03/22 04:42:28;;;;;;;18.00;8.83;;;-0.10;95.40;;;;;;5035803;28;20971;-78
2022/03/22 04:44:53;;;;;;;18.13;8.57;;;-0.10;95.60;;;;;;5036689;28;20180;-78
2022/03/22 04:47:19;;;;;;;19.67;9.30;;;-0.20;95.70;;;;;;5034671;28;20675;-78
2022/03/22 04:49:45;;;;;;;23.23;9.17;;;-0.20;95.80;;;;;;5035282;28;20196;-78
2022/03/22 04:57:38;;;;;;;19.07;8.63;;;-0.30;96.20;;;;;;5036354;28;20414;-77
2022/03/22 05:00:05;;;;;;;22.13;8.10;;;-0.30;96.40;;;;;;5033827;28;20431;-76
2022/03/22 05:02:31;;;;;;;18.83;9.93;;;-0.30;96.40;;;;;;5030231;28;20236;-76
2022/03/22 05:04:57;;;;;;;19.93;8.67;;;-0.30;96.40;;;;;;5014665;28;21015;-77
2022/03/22 05:07:22;;;;;;;24.17;8.80;;;-0.30;96.40;;;;;;5032967;28;20271;-77
2022/03/22 05:09:48;;;;;;;18.77;8.23;;;-0.30;96.50;;;;;;5035346;28;20208;-78
2022/03/22 05:12:13;;;;;;;20.80;9.10;;;-0.30;96.50;;;;;;5033122;28;20196;-78
2022/03/22 05:14:41;;;;;;;20.00;9.27;;;-0.30;96.40;;;;;;5026661;28;20201;-77
2022/03/22 05:17:06;;;;;;;21.73;8.73;;;-0.40;96.40;;;;;;5023304;28;20278;-76
2022/03/22 05:19:32;;;;;;;15.40;8.13;;;-0.40;96.50;;;;;;5020507;28;20896;-77
2022/03/22 05:21:58;;;;;;;26.53;8.03;;;-0.40;96.60;;;;;;5029609;28;20566;-77
2022/03/22 05:24:23;;;;;;;18.37;8.30;;;-0.40;96.60;;;;;;5025333;28;20196;-76
2022/03/22 05:26:50;;;;;;;18.83;8.87;;;-0.40;96.80;;;;;;5032033;28;20214;-77
2022/03/22 05:29:17;;;;;;;16.67;7.60;;;-0.40;96.80;;;;;;5029534;28;20671;-78
2022/03/22 05:31:43;;;;;;;25.70;9.40;;;-0.40;96.80;;;;;;5029166;28;20422;-78
2022/03/22 05:34:08;;;;;;;23.37;10.90;;;-0.40;96.80;;;;;;5030647;28;20446;-78
2022/03/22 05:36:36;;;;;;;19.37;8.10;;;-0.50;97.00;;;;;;5030131;28;20192;-78
2022/03/22 05:39:02;;;;;;;16.40;7.70;;;-0.50;97.10;;;;;;5028489;28;20228;-78
2022/03/22 05:41:27;;;;;;;20.10;8.63;;;-0.50;97.20;;;;;;5030105;28;20855;-77
2022/03/22 05:43:53;;;;;;;22.50;9.03;;;-0.50;97.10;;;;;;5029241;28;20197;-80
2022/03/22 05:46:19;;;;;;;19.33;8.23;;;-0.50;96.90;;;;;;5030291;28;20180;-79
2022/03/22 05:48:48;;;;;;;20.43;8.47;;;-0.40;96.90;;;;;;5024797;28;20231;-77
2022/03/22 05:51:16;;;;;;;17.53;9.67;;;-0.40;96.90;;;;;;5031581;28;20228;-77
2022/03/22 05:53:45;;;;;;;28.50;10.47;;;-0.40;96.90;;;;;;5030018;28;20470;-76
2022/03/22 05:56:11;;;;;;;21.03;9.97;;;-0.40;96.70;;;;;;5030358;28;20434;-77
2022/03/22 05:58:37;;;;;;;18.93;8.03;;;-0.30;96.60;;;;;;5029614;28;20421;-78
2022/03/22 06:01:08;;;;;;;21.23;9.67;;;-0.20;96.50;;;;;;5031132;28;20420;-77
2022/03/22 06:03:34;;;;;;;15.47;7.83;;;-0.20;96.40;;;;;;5030074;28;20466;-76
2022/03/22 06:06:00;;;;;;;16.23;8.90;;;0.00;96.20;;;;;;5029436;28;20492;-75
2022/03/22 06:08:27;;;;;;;19.40;8.37;;;0.10;96.00;;;;;;5029121;28;20176;-76
2022/03/22 06:10:52;;;;;;;20.40;8.50;;;0.20;95.50;;;;;;5030313;28;20426;-76
2022/03/22 06:13:18;;;;;;;172.73;61.67;;;0.30;95.30;;;;;;5029026;28;20477;-77
2022/03/22 06:15:44;;;;;;;121.00;47.70;;;0.40;95.10;;;;;;5034665;28;20664;-76
2022/03/22 06:18:11;;;;;;;90.87;33.40;;;0.50;95.10;;;;;;5031389;28;20415;-76
2022/03/22 06:20:39;;;;;;;66.80;23.07;;;0.50;95.00;;;;;;5028404;28;20200;-76
2022/03/22 06:23:07;;;;;;;61.00;22.43;;;0.60;94.80;;;;;;5028867;28;20473;-76
2022/03/22 06:25:34;;;;;;;32.63;12.60;;;0.60;94.50;;;;;;5029012;28;20506;-78
2022/03/22 06:28:00;;;;;;;23.90;11.60;;;0.70;94.40;;;;;;5007431;28;20427;-77
2022/03/22 06:30:27;;;;;;;26.70;12.67;;;0.90;93.70;;;;;;5009004;28;20499;-77
2022/03/22 06:32:58;;;;;;;22.53;10.40;;;1.00;93.10;;;;;;5027159;28;20550;-77
2022/03/22 06:35:29;;;;;;;27.80;8.30;;;1.20;92.40;;;;;;5026959;28;20426;-76
2022/03/22 06:37:55;;;;;;;23.60;8.23;;;1.30;91.90;;;;;;5025803;28;20526;-76
2022/03/22 06:40:22;;;;;;;20.07;8.03;;;1.50;91.10;;;;;;5025780;28;20461;-76
2022/03/22 06:42:48;;;;;;;19.07;8.73;;;1.60;90.70;;;;;;5027500;28;20549;-76
2022/03/22 06:45:14;;;;;;;18.80;8.40;;;1.80;89.80;;;;;;5025901;28;20423;-76
2022/03/22 06:47:41;;;;;;;21.63;8.43;;;2.10;89.20;;;;;;5028192;28;20464;-76
2022/03/22 06:50:09;;;;;;;17.37;8.20;;;2.20;88.60;;;;;;5027814;28;20176;-77
2022/03/22 06:52:36;;;;;;;14.97;7.83;;;2.50;88.10;;;;;;5028164;28;20450;-76
2022/03/22 06:55:02;;;;;;;20.77;9.13;;;2.60;87.60;;;;;;5028153;28;21122;-76
2022/03/22 06:57:29;;;;;;;25.47;10.60;;;2.80;86.90;;;;;;5028129;28;20430;-76
2022/03/22 06:59:55;;;;;;;18.77;9.23;;;3.10;86.10;;;;;;5027802;28;20506;-76
2022/03/22 07:02:21;;;;;;;20.10;8.10;;;3.30;85.10;;;;;;5028565;28;20463;-76
2022/03/22 07:04:48;;;;;;;22.03;7.83;;;3.50;84.50;;;;;;5027686;28;20450;-78
2022/03/22 07:07:14;;;;;;;15.03;7.57;;;3.80;83.80;;;;;;5028166;28;20434;-77
2022/03/22 07:09:39;;;;;;;15.73;8.37;;;4.00;82.80;;;;;;5028311;28;20422;-76
2022/03/22 07:12:05;;;;;;;15.87;7.63;;;4.20;82.50;;;;;;5029728;28;20184;-78
2022/03/22 07:14:31;;;;;;;15.90;7.70;;;4.40;81.30;;;;;;5031466;28;20312;-78
2022/03/22 07:16:56;;;;;;;15.80;7.57;;;4.50;81.40;;;;;;5032816;28;20517;-78
2022/03/22 07:19:23;;;;;;;15.03;7.73;;;4.70;80.20;;;;;;5030720;28;20181;-79
2022/03/22 07:21:49;;;;;;;17.43;7.30;;;4.90;79.60;;;;;;5034757;28;20688;-78
2022/03/22 07:24:20;;;;;;;15.93;7.40;;;5.10;79.30;;;;;;5032413;28;20779;-79
2022/03/22 07:26:46;;;;;;;19.43;8.50;;;5.20;79.30;;;;;;5036370;28;20423;-79
2022/03/22 07:29:15;;;;;;;18.27;8.87;;;5.30;78.60;;;;;;5032246;28;20457;-78
2022/03/22 07:31:41;;;;;;;20.20;8.60;;;5.50;78.40;;;;;;5031874;28;20474;-78
2022/03/22 07:34:12;;;;;;;13.77;7.70;;;5.60;78.30;;;;;;5044301;28;20962;-79
2022/03/22 07:36:39;;;;;;;17.03;8.20;;;5.80;78.60;;;;;;5035254;28;20588;-78
2022/03/22 07:39:06;;;;;;;22.53;9.40;;;5.90;77.70;;;;;;5031081;28;20427;-79
2022/03/22 07:41:31;;;;;;;17.83;8.47;;;6.10;76.50;;;;;;5032103;28;20414;-78
2022/03/22 07:43:57;;;;;;;17.30;7.87;;;6.20;76.70;;;;;;5031136;28;20439;-78
2022/03/22 07:46:25;;;;;;;25.00;9.07;;;6.30;76.10;;;;;;5032187;28;20810;-79
2022/03/22 07:48:51;;;;;;;20.83;9.27;;;6.40;76.40;;;;;;5030995;28;20177;-78
2022/03/22 07:54:02;;;;;;;14.27;8.57;;;6.80;76.70;;;;;;5039579;28;20629;-78
2022/03/22 07:56:28;;;;;;;18.20;8.60;;;7.00;75.40;;;;;;5027726;28;20511;-79
2022/03/22 07:58:54;;;;;;;17.40;8.80;;;7.20;74.30;;;;;;5030586;28;20598;-78
2022/03/22 08:01:19;;;;;;;20.97;9.73;;;7.30;74.10;;;;;;5030497;28;20708;-78
2022/03/22 08:03:45;;;;;;;17.37;9.33;;;7.50;73.30;;;;;;5030022;28;20216;-79
2022/03/22 08:06:11;;;;;;;17.70;8.60;;;7.60;72.60;;;;;;5031427;28;20176;-78
2022/03/22 08:08:37;;;;;;;16.10;7.73;;;7.70;72.50;;;;;;5030078;28;20595;-78
2022/03/22 08:11:06;;;;;;;18.80;8.27;;;7.90;71.60;;;;;;5030103;28;20614;-78
2022/03/22 08:13:34;;;;;;;21.73;8.90;;;8.00;72.10;;;;;;5029898;28;20869;-78
2022/03/22 08:16:00;;;;;;;18.90;8.70;;;8.20;72.30;;;;;;5030180;28;20513;-78
2022/03/22 08:18:25;;;;;;;24.10;8.53;;;8.30;70.00;;;;;;5030092;28;20836;-79
2022/03/22 08:20:51;;;;;;;13.67;7.60;;;8.40;69.80;;;;;;5030169;28;20185;-79
2022/03/22 08:23:17;;;;;;;16.30;8.33;;;8.40;69.70;;;;;;5029660;28;20590;-78
2022/03/22 08:25:43;;;;;;;17.03;8.43;;;8.60;70.20;;;;;;5031483;28;20183;-78
2022/03/22 08:28:11;;;;;;;16.80;8.23;;;8.60;69.20;;;;;;5030451;28;20230;-79
2022/03/22 08:30:38;;;;;;;16.50;9.17;;;8.80;68.80;;;;;;5030160;28;20459;-79
2022/03/22 08:33:07;;;;;;;17.80;9.33;;;8.90;69.90;;;;;;5029772;28;20435;-78
2022/03/22 08:35:34;;;;;;;16.20;8.03;;;9.10;69.70;;;;;;5029801;28;20415;-79
2022/03/22 08:38:00;;;;;;;13.77;7.50;;;9.30;69.60;;;;;;5029387;28;20803;-79
2022/03/22 08:40:26;;;;;;;17.07;9.10;;;9.50;68.10;;;;;;5029631;28;20435;-79
2022/03/22 08:42:53;;;;;;;18.50;8.90;;;9.60;68.00;;;;;;5030186;28;20471;-79
2022/03/22 08:45:22;;;;;;;18.50;8.50;;;9.70;67.00;;;;;;5030359;28;20852;-79
2022/03/22 08:47:49;;;;;;;19.40;7.43;;;9.90;68.10;;;;;;5030862;28;20421;-77
2022/03/22 08:50:17;;;;;;;17.80;8.60;;;10.00;67.30;;;;;;5033337;28;20422;-78
2022/03/22 08:52:44;;;;;;;21.17;8.77;;;10.10;66.80;;;;;;5031106;28;20935;-78
2022/03/22 08:55:18;;;;;;;18.93;9.10;;;10.30;67.30;;;;;;5032746;28;20448;-77
2022/03/22 08:57:47;;;;;;;16.07;8.00;;;10.50;67.40;;;;;;5033923;28;20498;-77
2022/03/22 09:00:14;;;;;;;17.70;8.60;;;10.50;65.50;;;;;;5035686;28;20423;-77
2022/03/22 09:02:41;;;;;;;21.40;8.20;;;10.80;66.90;;;;;;5030286;28;20463;-77
2022/03/22 09:07:53;;;;;;;15.17;8.53;;;11.10;66.80;;;;;;5033685;28;20453;-76
2022/03/22 09:10:21;;;;;;;19.30;9.97;;;11.20;65.80;;;;;;5034894;28;20415;-79
2022/03/22 09:12:50;;;;;;;14.57;7.30;;;11.30;65.50;;;;;;5042019;28;20446;-79
2022/03/22 09:15:21;;;;;;;17.80;8.80;;;11.40;65.80;;;;;;5041992;28;20420;-80
2022/03/22 09:17:47;;;;;;;17.93;8.00;;;11.50;65.30;;;;;;5033471;28;20447;-78
2022/03/22 09:20:13;;;;;;;18.97;10.13;;;11.70;65.40;;;;;;5031133;28;20422;-78
2022/03/22 09:22:48;;;;;;;17.80;7.97;;;11.80;64.80;;;;;;5032413;28;20486;-78
2022/03/22 09:25:16;;;;;;;13.27;7.70;;;11.80;64.50;;;;;;5032231;28;20912;-77
2022/03/22 09:27:42;;;;;;;12.33;7.57;;;12.00;64.80;;;;;;5034120;28;20431;-79
2022/03/22 09:30:10;;;;;;;16.23;8.07;;;12.10;63.00;;;;;;5039875;28;20411;-79
2022/03/22 09:32:36;;;;;;;16.47;8.70;;;12.10;63.00;;;;;;5040878;28;20437;-79
2022/03/22 09:35:06;;;;;;;17.97;7.93;;;12.20;63.50;;;;;;5039153;28;20481;-79
2022/03/22 09:37:33;;;;;;;17.07;8.53;;;12.30;63.60;;;;;;5048184;28;20456;-79
2022/03/22 09:39:59;;;;;;;19.97;8.13;;;12.40;63.10;;;;;;5039774;28;20415;-79
2022/03/22 09:42:27;;;;;;;16.87;8.67;;;12.40;63.30;;;;;;5039430;28;20459;-80
2022/03/22 09:44:53;;;;;;;14.23;8.00;;;12.50;62.60;;;;;;5039965;28;20196;-78
2022/03/22 09:47:19;;;;;;;20.07;9.50;;;12.60;62.60;;;;;;5038293;28;20818;-79
2022/03/22 09:49:45;;;;;;;15.30;7.80;;;12.70;61.90;;;;;;5038169;28;20412;-79
2022/03/22 09:52:11;;;;;;;19.03;9.87;;;12.70;60.60;;;;;;5038847;28;20180;-79
2022/03/22 09:54:39;;;;;;;26.40;9.30;;;12.80;61.30;;;;;;5039191;28;20279;-79
2022/03/22 09:57:05;;;;;;;12.73;7.37;;;12.90;62.30;;;;;;5039078;28;20454;-79
2022/03/22 09:59:35;;;;;;;17.20;8.50;;;12.90;60.80;;;;;;5039844;28;20415;-78
2022/03/22 10:02:02;;;;;;;12.67;8.10;;;13.00;61.90;;;;;;5041068;28;20300;-78
2022/03/22 10:04:40;;;;;;;17.43;8.60;;;13.10;61.90;;;;;;5040263;28;20431;-79
2022/03/22 10:07:07;;;;;;;18.53;9.63;;;13.30;63.30;;;;;;5038818;28;20964;-78
2022/03/22 10:09:39;;;;;;;16.33;8.30;;;13.50;63.00;;;;;;5040787;28;20415;-80
2022/03/22 10:12:07;;;;;;;19.23;8.23;;;13.60;62.70;;;;;;5039998;28;20419;-80
2022/03/22 10:14:38;;;;;;;15.77;7.90;;;13.70;60.80;;;;;;5039381;28;20882;-79
2022/03/22 10:17:11;;;;;;;12.13;7.07;;;13.80;60.40;;;;;;5038054;28;20427;-79
2022/03/22 10:19:42;;;;;;;15.50;7.87;;;13.90;60.10;;;;;;5034659;28;20431;-78
2022/03/22 10:22:10;;;;;;;18.20;8.60;;;13.90;59.80;;;;;;5032376;28;20503;-78
2022/03/22 10:24:47;;;;;;;14.90;8.00;;;14.00;59.70;;;;;;5032044;28;20427;-78
2022/03/22 10:27:23;;;;;;;16.27;8.23;;;14.00;59.10;;;;;;5033684;28;20449;-78
2022/03/22 10:29:50;;;;;;;13.97;8.13;;;14.10;61.20;;;;;;5033698;28;20490;-78
2022/03/22 10:32:16;;;;;;;17.07;8.50;;;14.20;59.20;;;;;;5032831;28;21043;-77
2022/03/22 10:34:42;;;;;;;12.03;7.80;;;14.20;58.70;;;;;;5034171;28;20439;-79
2022/03/22 10:37:09;;;;;;;13.73;8.10;;;14.20;58.60;;;;;;5034529;28;20427;-79
2022/03/22 10:39:42;;;;;;;12.97;8.30;;;14.30;58.40;;;;;;5035095;28;20173;-80
2022/03/22 10:42:09;;;;;;;18.90;8.87;;;14.40;57.50;;;;;;5041799;28;20462;-80
2022/03/22 10:44:36;;;;;;;14.60;8.07;;;14.50;58.90;;;;;;5042257;28;20427;-80
2022/03/22 10:47:03;;;;;;;15.60;8.23;;;14.60;57.80;;;;;;5046066;28;20468;-80
2022/03/22 10:49:29;;;;;;;16.00;8.97;;;14.70;58.10;;;;;;5045447;28;20418;-80
2022/03/22 10:51:56;;;;;;;16.03;9.00;;;14.80;59.30;;;;;;5045396;28;20415;-80
2022/03/22 10:54:23;;;;;;;20.90;9.33;;;14.90;61.20;;;;;;5044245;28;20465;-80
2022/03/22 10:56:54;;;;;;;21.00;8.43;;;15.00;60.20;;;;;;5043656;28;20426;-81
2022/03/22 10:59:23;;;;;;;15.60;9.30;;;15.10;59.40;;;;;;5043906;28;20784;-80
2022/03/22 11:01:50;;;;;;;18.30;9.10;;;15.20;58.80;;;;;;5043747;28;20491;-81
2022/03/22 11:04:16;;;;;;;14.73;9.47;;;15.30;58.90;;;;;;5045952;28;20431;-81
2022/03/22 11:06:46;;;;;;;14.80;9.10;;;15.50;59.00;;;;;;5045451;28;20407;-81
2022/03/22 11:09:17;;;;;;;16.83;8.63;;;15.70;60.10;;;;;;5045334;28;20435;-81
2022/03/22 11:11:44;;;;;;;14.40;8.83;;;15.90;59.30;;;;;;5044811;28;20435;-81
2022/03/22 11:14:13;;;;;;;20.23;9.30;;;16.00;59.40;;;;;;5044398;28;20468;-81
2022/03/22 11:16:40;;;;;;;17.87;9.80;;;16.10;59.50;;;;;;5045309;28;20562;-81
2022/03/22 11:19:08;;;;;;;13.80;8.73;;;16.20;59.50;;;;;;5044935;28;20473;-81
2022/03/22 11:21:34;;;;;;;22.13;8.80;;;16.30;59.00;;;;;;5047361;28;20411;-80
2022/03/22 11:24:13;;;;;;;17.73;9.17;;;16.20;57.40;;;;;;5045124;28;20986;-80
2022/03/22 11:26:47;;;;;;;21.23;10.13;;;16.00;58.30;;;;;;5045197;28;20236;-81
2022/03/22 11:29:19;;;;;;;13.50;9.07;;;16.00;58.40;;;;;;5045423;28;20423;-81
2022/03/22 11:34:32;;;;;;;15.60;8.60;;;16.10;57.80;;;;;;5045856;28;20466;-81
2022/03/22 11:36:59;;;;;;;16.13;8.50;;;16.20;58.50;;;;;;5044387;28;20425;-81
2022/03/22 11:42:21;;;;;;;14.37;8.33;;;16.60;56.80;;;;;;5043255;28;20457;-78
2022/03/22 11:44:58;;;;;;;19.40;8.17;;;16.70;56.70;;;;;;5038116;28;20888;-78
2022/03/22 11:47:25;;;;;;;17.60;8.00;;;16.80;58.90;;;;;;5039028;28;20811;-78
2022/03/22 11:50:03;;;;;;;16.13;8.33;;;17.00;59.10;;;;;;5043078;28;20419;-81
2022/03/22 11:52:40;;;;;;;22.93;8.40;;;17.20;56.90;;;;;;5044220;28;20430;-82
2022/03/22 11:55:18;;;;;;;12.90;8.17;;;17.30;56.60;;;;;;5044207;28;20422;-82
2022/03/22 11:57:53;;;;;;;17.77;8.47;;;17.40;57.50;;;;;;5042906;28;20431;-81
2022/03/22 12:00:42;;;;;;;22.50;7.67;;;17.50;55.90;;;;;;5043205;28;20411;-81
2022/03/22 12:03:09;;;;;;;15.53;7.50;;;17.70;55.40;;;;;;5042807;28;20865;-81
2022/03/22 12:05:35;;;;;;;13.93;8.67;;;17.80;53.50;;;;;;5043346;28;20423;-80
2022/03/22 12:08:06;;;;;;;17.33;7.60;;;18.00;55.90;;;;;;5043889;28;20419;-80
2022/03/22 12:10:32;;;;;;;15.50;8.43;;;18.20;55.90;;;;;;5045004;28;20411;-80
2022/03/22 12:12:58;;;;;;;19.03;9.17;;;18.30;57.50;;;;;;5043500;28;20448;-78
2022/03/22 12:15:24;;;;;;;16.97;8.67;;;18.40;56.90;;;;;;5044141;28;20184;-80
2022/03/22 12:17:51;;;;;;;17.00;9.87;;;18.50;58.60;;;;;;5043438;28;20419;-80
2022/03/22 12:20:21;;;;;;;19.17;11.00;;;18.50;57.00;;;;;;5043108;28;20187;-80
2022/03/22 12:23:00;;;;;;;17.80;9.20;;;18.50;57.60;;;;;;5045174;28;20459;-80
2022/03/22 12:25:31;;;;;;;16.93;8.60;;;18.60;57.70;;;;;;5044630;28;20391;-80
2022/03/22 12:28:08;;;;;;;15.83;9.00;;;18.60;57.40;;;;;;5043575;28;20909;-80
2022/03/22 12:30:42;;;;;;;14.50;9.10;;;18.70;58.80;;;;;;5042797;28;20438;-80
2022/03/22 12:33:14;;;;;;;17.27;9.60;;;18.90;57.90;;;;;;5042942;28;20507;-80
2022/03/22 12:35:42;;;;;;;15.90;9.63;;;19.00;56.90;;;;;;5042924;28;20396;-82
2022/03/22 12:38:08;;;;;;;15.70;9.80;;;19.00;57.00;;;;;;5042197;28;20430;-80
2022/03/22 12:40:35;;;;;;;12.40;8.93;;;19.20;58.50;;;;;;5042863;28;20425;-81
2022/03/22 12:43:02;;;;;;;18.63;9.63;;;19.40;56.30;;;;;;5037906;28;20501;-79
2022/03/22 12:45:29;;;;;;;13.63;9.27;;;19.70;56.60;;;;;;5033561;28;20932;-77
2022/03/22 12:47:56;;;;;;;20.23;8.97;;;19.70;55.70;;;;;;5034521;28;20419;-78
2022/03/22 12:50:23;;;;;;;15.00;9.60;;;19.60;55.60;;;;;;5029452;28;20431;-78
2022/03/22 12:52:50;;;;;;;14.30;9.00;;;19.70;56.70;;;;;;5033276;28;20423;-78
2022/03/22 12:55:18;;;;;;;18.73;9.17;;;19.90;57.10;;;;;;5031637;28;20432;-78
2022/03/22 12:57:46;;;;;;;18.03;9.33;;;20.10;55.10;;;;;;5031852;28;20443;-78
2022/03/22 13:00:28;;;;;;;15.43;9.60;;;20.20;56.90;;;;;;5034139;28;20435;-79
2022/03/22 13:02:55;;;;;;;21.13;10.30;;;20.40;55.40;;;;;;5031514;28;20472;-78
2022/03/22 13:05:26;;;;;;;16.40;8.80;;;20.50;54.70;;;;;;5031111;28;20434;-78
2022/03/22 13:07:52;;;;;;;13.17;7.97;;;20.50;54.70;;;;;;5030762;28;21011;-79
2022/03/22 13:13:02;;;;;;;11.90;8.07;;;20.70;54.10;;;;;;5024519;28;20259;-79